If you wish to contribute or participate in the discussions about articles you are invited to join SKYbrary as a registered user

 Actions

Ísafjörður Airport

From SKYbrary Wiki

BIIS
Airport
ICAO: BIIS – IATA: IFJ
Summary
Name Ísafjörður Airport
Region Northern Atlantic
Territory Iceland IS.gif
Location , Vestfiroir
Serving Isafjordur
Elevation 2.438 m <br />8 ft <br />8 ft2.438 m <br />
Type medium airport
Coordinates 66° 3' 29.00" N, 23° 8' 7.00" W
Runways
Designator Length Width Surface ROPS
8/26 1400 m4,593.176 ft <br /> 45 m147.638 ft <br /> BIT /


METAR
Observation BIIS 251300Z 10004KT 9999 FEW028 02/M03 Q1003
Station Ísafjörður Airport
Date/Time 25 February 2021 13:00:00
Wind direction 100°
Wind speed 04 kts
Lowest cloud amount few clouds
Temperature 2°C
Dew point
Humidity 69%
QNH 1003 hPa
Weather condition n/a